Time;durP1;ratioP1;P1;durP2;ratioP2;P2;SDS_P1;SDS_P2;PMS_P1;PMS_P2;Temp;Humidity;BMP_temperature;BMP_pressure;BME280_temperature;BME280_humidity;BME280_pressure;Samples;Min_cycle;Max_cycle;Signal;HPM_P1;HPM_P2
2022/11/30 00:00:31;;;;;;;67.78;41.38;;;;;;;7.08;100.00;102133.22;5218405;28;20037;-67
2022/11/30 00:03:03;;;;;;;72.47;40.93;;;;;;;7.09;100.00;102134.91;5228330;28;20032;-67
2022/11/30 00:05:34;;;;;;;70.43;42.97;;;;;;;6.98;100.00;102143.00;5230302;28;20806;-69
2022/11/30 00:08:05;;;;;;;68.97;41.53;;;;;;;7.09;100.00;102142.72;5227000;28;20087;-68
2022/11/30 00:10:37;;;;;;;71.57;42.27;;;;;;;7.10;100.00;102139.25;5229494;28;20025;-67
2022/11/30 00:13:09;;;;;;;69.83;41.53;;;;;;;7.03;100.00;102143.75;5234515;28;20112;-67
2022/11/30 00:15:40;;;;;;;78.67;43.00;;;;;;;7.16;100.00;102141.69;5233593;28;20065;-68
2022/11/30 00:18:12;;;;;;;74.33;43.60;;;;;;;7.19;100.00;102139.00;5234312;28;20041;-68
2022/11/30 00:20:43;;;;;;;68.47;42.17;;;;;;;7.19;100.00;102143.38;5234380;28;20505;-67
2022/11/30 00:23:14;;;;;;;73.67;42.37;;;;;;;7.11;100.00;102141.81;5234490;28;20480;-67
2022/11/30 00:25:46;;;;;;;78.23;43.70;;;;;;;7.12;100.00;102145.28;5234137;28;20035;-68
2022/11/30 00:28:17;;;;;;;70.00;41.03;;;;;;;7.11;100.00;102143.56;5234392;28;20384;-68
2022/11/30 00:30:57;;;;;;;78.83;44.00;;;;;;;7.08;100.00;102147.09;5233611;28;20031;-68
2022/11/30 00:33:30;;;;;;;71.47;42.37;;;;;;;7.11;100.00;102140.94;5228805;28;20104;-67
2022/11/30 00:36:05;;;;;;;72.97;42.63;;;;;;;7.10;100.00;102139.25;5220414;28;20026;-67
2022/11/30 00:38:36;;;;;;;81.33;45.57;;;;;;;7.19;100.00;102153.81;5233543;28;20629;-67
2022/11/30 00:41:09;;;;;;;69.27;41.17;;;;;;;7.08;100.00;102146.25;5232209;28;20029;-67
2022/11/30 00:43:40;;;;;;;74.90;42.27;;;;;;;7.16;100.00;102149.50;5215085;28;20022;-67
2022/11/30 00:46:12;;;;;;;77.23;44.90;;;;;;;7.15;100.00;102147.81;5216678;28;20635;-68
2022/11/30 00:48:43;;;;;;;74.43;42.80;;;;;;;7.10;100.00;102149.66;5228091;28;20065;-67
2022/11/30 00:51:15;;;;;;;71.73;43.00;;;;;;;7.08;100.00;102151.44;5230081;28;20025;-68
2022/11/30 00:53:49;;;;;;;68.67;40.43;;;;;;;7.10;100.00;102150.50;5232747;28;20029;-67
2022/11/30 00:56:20;;;;;;;69.00;40.53;;;;;;;7.08;100.00;102152.31;5230579;28;20099;-67
2022/11/30 00:58:51;;;;;;;71.80;40.83;;;;;;;6.99;100.00;102132.56;5228686;28;20384;-68
2022/11/30 01:01:22;;;;;;;75.57;41.93;;;;;;;7.01;100.00;102156.81;5232446;28;20056;-67
2022/11/30 01:03:54;;;;;;;68.03;41.00;;;;;;;7.11;100.00;102151.38;5224153;28;20514;-68
2022/11/30 01:06:25;;;;;;;70.53;42.57;;;;;;;7.09;100.00;102154.03;5228469;28;20825;-68
2022/11/30 01:08:58;;;;;;;69.00;39.33;;;;;;;7.00;100.00;102164.66;5227357;28;20467;-68
2022/11/30 01:11:30;;;;;;;65.80;39.80;;;;;;;7.06;100.00;102163.66;5220003;28;20026;-67
2022/11/30 01:14:01;;;;;;;67.27;39.63;;;;;;;7.04;100.00;102149.81;5232366;28;20045;-69
2022/11/30 01:16:33;;;;;;;63.63;38.90;;;;;;;7.01;100.00;102155.94;5226938;28;20164;-67
2022/11/30 01:19:04;;;;;;;63.33;37.60;;;;;;;7.08;100.00;102146.25;5231167;28;20120;-69
2022/11/30 01:21:36;;;;;;;63.73;36.87;;;;;;;7.10;100.00;102160.09;5238081;28;20037;-67
2022/11/30 01:24:09;;;;;;;62.33;38.40;;;;;;;7.07;100.00;102161.00;5232885;28;20030;-68
2022/11/30 01:26:40;;;;;;;62.97;36.83;;;;;;;7.10;100.00;102160.09;5236585;28;20033;-68
2022/11/30 01:29:11;;;;;;;55.77;34.33;;;;;;;7.08;100.00;102154.91;5230913;28;20034;-67
2022/11/30 01:31:43;;;;;;;54.57;34.47;;;;;;;7.06;100.00;102150.63;5233082;28;20179;-68
2022/11/30 01:34:14;;;;;;;60.53;35.20;;;;;;;7.14;100.00;102161.72;5228925;28;20109;-67
2022/11/30 01:36:47;;;;;;;61.60;34.97;;;;;;;7.08;100.00;102162.75;5223558;28;20033;-68
2022/11/30 01:39:18;;;;;;;61.40;34.97;;;;;;;7.12;100.00;102147.88;5228015;28;20041;-67
2022/11/30 01:41:49;;;;;;;58.70;34.83;;;;;;;7.21;100.00;102165.06;5225859;28;20038;-67
2022/11/30 01:44:25;;;;;;;54.87;33.83;;;;;;;7.11;100.00;102159.19;5225444;28;20032;-68
2022/11/30 01:47:02;;;;;;;56.77;33.70;;;;;;;7.08;100.00;102152.31;5224860;28;20120;-67
2022/11/30 01:49:39;;;;;;;62.73;33.63;;;;;;;7.10;100.00;102154.88;5229677;28;20048;-67
2022/11/30 01:52:16;;;;;;;50.60;32.57;;;;;;;6.97;100.00;102151.69;5214841;28;20462;-67
2022/11/30 01:54:54;;;;;;;55.80;33.73;;;;;;;7.07;100.00;102168.00;5232611;28;20061;-67
2022/11/30 01:57:30;;;;;;;49.47;32.10;;;;;;;7.05;100.00;102172.38;5219205;28;20104;-67
2022/11/30 02:00:08;;;;;;;55.70;31.93;;;;;;;7.06;100.00;102179.28;5229289;28;20033;-68
2022/11/30 02:03:22;;;;;;;52.30;31.53;;;;;;;7.11;100.00;102177.44;5231710;28;20026;-68
2022/11/30 02:05:53;;;;;;;46.80;29.30;;;;;;;7.07;100.00;102181.84;5164925;28;20048;-67
2022/11/30 02:08:26;;;;;;;52.17;28.70;;;;;;;7.05;100.00;102183.63;5228064;28;20037;-68
2022/11/30 02:11:01;;;;;;;48.63;29.03;;;;;;;7.05;100.00;102174.97;5230584;28;20124;-68
2022/11/30 02:13:57;;;;;;;47.57;30.20;;;;;;;7.12;100.00;102173.94;5221733;28;20045;-67
2022/11/30 02:16:40;;;;;;;44.17;29.33;;;;;;;6.99;100.00;102179.44;5221025;28;20037;-68
2022/11/30 02:19:42;;;;;;;53.03;29.80;;;;;;;7.05;100.00;102178.41;5231834;28;20079;-67
2022/11/30 02:22:34;;;;;;;46.37;28.87;;;;;;;7.06;100.00;102180.16;5231769;28;20314;-67
2022/11/30 02:25:35;;;;;;;40.13;27.50;;;;;;;7.08;100.00;102180.13;5231871;28;20045;-67
2022/11/30 02:28:31;;;;;;;47.33;28.50;;;;;;;7.09;100.00;102180.06;5199018;28;20037;-68
2022/11/30 02:31:07;;;;;;;41.90;28.57;;;;;;;7.07;100.00;102181.84;5231373;28;20030;-68
2022/11/30 02:33:39;;;;;;;43.47;27.37;;;;;;;7.09;100.00;102181.81;5247034;28;20022;-67
2022/11/30 02:36:11;;;;;;;42.77;27.77;;;;;;;7.01;100.00;102175.06;5232028;28;20381;-67
2022/11/30 02:38:43;;;;;;;41.37;26.63;;;;;;;7.02;100.00;102175.88;5236671;28;20036;-67
2022/11/30 02:41:14;;;;;;;36.73;26.03;;;;;;;6.94;100.00;102178.69;5231639;28;20468;-68
2022/11/30 02:43:46;;;;;;;42.73;27.40;;;;;;;7.04;100.00;102184.53;5234948;28;20029;-69
2022/11/30 02:46:22;;;;;;;37.27;24.97;;;;;;;7.03;100.00;102177.63;5225836;28;20014;-67
2022/11/30 02:49:10;;;;;;;37.27;24.63;;;;;;;7.01;100.00;102180.25;5236029;28;20037;-67
2022/11/30 02:51:44;;;;;;;37.27;24.70;;;;;;;6.99;100.00;102189.84;5233650;28;20021;-67
2022/11/30 02:54:17;;;;;;;35.00;23.77;;;;;;;7.04;100.00;102196.69;5233933;28;20025;-67
2022/11/30 02:56:49;;;;;;;34.53;24.37;;;;;;;7.07;100.00;102196.66;5231311;28;20649;-67
2022/11/30 02:59:21;;;;;;;32.33;25.33;;;;;;;7.05;100.00;102185.41;5240478;28;20014;-67
2022/11/30 03:01:52;;;;;;;36.13;23.80;;;;;;;7.13;100.00;102192.16;5230607;28;20093;-67
2022/11/30 03:04:23;;;;;;;33.67;24.30;;;;;;;7.08;100.00;102194.00;5227184;28;20148;-68
2022/11/30 03:06:54;;;;;;;33.57;22.97;;;;;;;7.09;100.00;102190.50;5230272;28;20075;-67
2022/11/30 03:09:26;;;;;;;31.13;23.53;;;;;;;7.11;100.00;102190.44;5234731;28;20245;-67
2022/11/30 03:11:57;;;;;;;31.13;23.07;;;;;;;7.10;100.00;102186.97;5232438;28;20029;-67
2022/11/30 03:14:28;;;;;;;37.20;23.80;;;;;;;6.89;100.00;102196.16;5233138;28;20049;-67
2022/11/30 03:17:00;;;;;;;31.30;22.97;;;;;;;6.95;100.00;102198.63;5234885;28;20085;-67
2022/11/30 03:19:32;;;;;;;31.77;22.43;;;;;;;7.00;100.00;102196.78;5235424;28;20022;-67
2022/11/30 03:22:03;;;;;;;33.07;22.20;;;;;;;6.93;100.00;102195.19;5234964;28;20037;-68
2022/11/30 03:24:34;;;;;;;32.27;23.03;;;;;;;6.92;100.00;102193.50;5229238;28;20030;-68
2022/11/30 03:27:06;;;;;;;28.90;22.17;;;;;;;6.91;100.00;102191.78;5230814;28;20087;-67
2022/11/30 03:29:38;;;;;;;29.60;21.03;;;;;;;6.86;100.00;102198.84;5234028;28;20160;-67
2022/11/30 03:32:09;;;;;;;31.30;21.60;;;;;;;6.94;100.00;102196.91;5222764;28;20507;-68
2022/11/30 03:34:40;;;;;;;28.73;21.47;;;;;;;6.87;100.00;102196.22;5228552;28;20041;-67
2022/11/30 03:37:11;;;;;;;32.57;21.47;;;;;;;6.93;100.00;102195.19;5228226;28;20037;-67
2022/11/30 03:39:43;;;;;;;27.97;21.67;;;;;;;6.98;100.00;102187.28;5234875;28;20033;-67
2022/11/30 03:42:14;;;;;;;29.10;20.93;;;;;;;6.92;100.00;102190.00;5231073;28;20034;-67
2022/11/30 03:44:45;;;;;;;27.53;20.53;;;;;;;6.90;100.00;102188.31;5231734;28;20026;-67
2022/11/30 03:47:16;;;;;;;31.73;21.77;;;;;;;6.90;100.00;102190.06;5230031;28;20029;-67
2022/11/30 03:49:48;;;;;;;27.33;20.57;;;;;;;6.88;100.00;102189.22;5232727;28;20029;-68
2022/11/30 03:52:19;;;;;;;26.83;20.33;;;;;;;6.89;100.00;102194.41;5228772;28;20032;-67
2022/11/30 03:54:50;;;;;;;27.03;20.60;;;;;;;6.89;100.00;102193.56;5226748;28;20034;-67
2022/11/30 03:57:22;;;;;;;32.60;20.90;;;;;;;6.81;100.00;102195.50;5221154;28;20045;-67
2022/11/30 03:59:53;;;;;;;32.87;22.03;;;;;;;6.87;100.00;102205.75;5224389;28;20040;-67
2022/11/30 04:02:24;;;;;;;28.07;21.37;;;;;;;6.92;100.00;102200.44;5229617;28;20077;-67
2022/11/30 04:04:55;;;;;;;29.43;20.40;;;;;;;6.97;100.00;102196.84;5231218;28;20029;-67
2022/11/30 04:07:27;;;;;;;29.93;20.77;;;;;;;6.87;100.00;102196.22;5227051;28;20029;-67
2022/11/30 04:09:58;;;;;;;25.67;20.10;;;;;;;6.74;100.00;102197.34;5232290;28;20047;-67
2022/11/30 04:12:29;;;;;;;27.87;20.93;;;;;;;6.82;100.00;102192.84;5233968;28;20346;-67
2022/11/30 04:15:01;;;;;;;27.27;20.67;;;;;;;6.80;100.00;102186.81;5226809;28;20501;-67
2022/11/30 04:17:32;;;;;;;27.30;20.63;;;;;;;6.86;100.00;102196.25;5224889;28;20053;-67
2022/11/30 04:20:04;;;;;;;24.70;19.93;;;;;;;6.76;100.00;102192.97;5234244;28;20550;-67
2022/11/30 04:22:35;;;;;;;27.20;20.23;;;;;;;6.75;100.00;102202.53;5233262;28;20574;-67
2022/11/30 04:25:07;;;;;;;28.10;19.60;;;;;;;6.72;100.00;102199.16;5217133;28;20435;-67
2022/11/30 04:27:38;;;;;;;28.23;21.20;;;;;;;6.65;100.00;102181.03;5232828;28;20542;-66
2022/11/30 04:30:10;;;;;;;28.67;20.80;;;;;;;6.81;100.00;102195.50;5233148;28;20048;-66
2022/11/30 04:32:41;;;;;;;26.03;19.17;;;;;;;6.81;100.00;102201.53;5229305;28;20026;-67
2022/11/30 04:35:13;;;;;;;23.63;18.23;;;;;;;6.85;100.00;102199.72;5233585;28;20037;-66
2022/11/30 04:37:44;;;;;;;26.70;20.87;;;;;;;6.97;100.00;102202.06;5234165;28;20108;-66
2022/11/30 04:40:15;;;;;;;26.83;20.70;;;;;;;6.77;100.00;102200.75;5233171;28;20044;-66
2022/11/30 04:42:47;;;;;;;26.80;21.10;;;;;;;6.74;100.00;102190.41;5229436;28;20032;-66
2022/11/30 04:45:18;;;;;;;25.80;20.50;;;;;;;6.89;100.00;102202.22;5230643;28;20465;-66
2022/11/30 04:47:49;;;;;;;28.53;20.60;;;;;;;6.89;100.00;102207.41;5233483;28;20030;-67
2022/11/30 04:50:20;;;;;;;29.33;19.13;;;;;;;6.75;100.00;102202.53;5233547;28;20033;-67
2022/11/30 04:52:52;;;;;;;25.03;20.37;;;;;;;6.90;100.00;102210.88;5231886;28;20476;-67
2022/11/30 04:55:23;;;;;;;28.23;20.23;;;;;;;6.80;100.00;102210.25;5230236;28;20435;-67
2022/11/30 04:57:55;;;;;;;24.23;19.80;;;;;;;6.95;100.00;102216.00;5228265;28;20607;-67
2022/11/30 05:00:26;;;;;;;26.80;20.30;;;;;;;6.87;100.00;102205.75;5225587;28;20033;-67
2022/11/30 05:02:57;;;;;;;26.63;19.43;;;;;;;6.92;100.00;102203.91;5230221;28;20292;-66
2022/11/30 05:05:29;;;;;;;29.67;22.97;;;;;;;6.84;100.00;102208.44;5223340;28;20037;-66
2022/11/30 05:08:00;;;;;;;26.93;20.40;;;;;;;6.73;100.00;102209.53;5228510;28;20933;-67
2022/11/30 05:10:32;;;;;;;30.20;21.27;;;;;;;6.75;100.00;102212.97;5231700;28;20103;-66
2022/11/30 05:13:03;;;;;;;28.57;20.07;;;;;;;6.72;100.00;102210.41;5233123;28;20037;-67
2022/11/30 05:15:35;;;;;;;28.33;19.43;;;;;;;6.65;100.00;102214.00;5225400;28;20507;-67
2022/11/30 05:18:06;;;;;;;24.53;20.57;;;;;;;6.63;100.00;102218.44;5233226;28;20087;-66
2022/11/30 05:20:37;;;;;;;25.33;19.93;;;;;;;6.64;100.00;102214.91;5231410;28;20033;-66
2022/11/30 05:23:08;;;;;;;25.50;19.73;;;;;;;6.61;100.00;102218.47;5232707;28;20091;-67
2022/11/30 05:25:40;;;;;;;22.93;18.67;;;;;;;6.74;100.00;102220.78;5220079;28;20034;-67
2022/11/30 05:28:11;;;;;;;24.10;19.20;;;;;;;6.67;100.00;102214.84;5224298;28;20056;-67
2022/11/30 05:30:43;;;;;;;26.27;20.67;;;;;;;6.62;100.00;102222.75;5231684;28;20108;-67
2022/11/30 05:33:14;;;;;;;27.17;19.67;;;;;;;6.60;100.00;102219.31;5232642;28;20501;-67
2022/11/30 05:35:45;;;;;;;23.63;19.90;;;;;;;6.53;100.00;102225.53;5221996;28;20145;-67
2022/11/30 05:38:17;;;;;;;25.03;19.17;;;;;;;6.40;100.00;102196.31;5221980;28;20045;-67
2022/11/30 05:40:48;;;;;;;25.70;19.40;;;;;;;6.58;100.00;102221.09;5217587;28;20538;-67
2022/11/30 05:43:19;;;;;;;28.40;18.57;;;;;;;6.60;100.00;102227.13;5228733;28;20025;-67
2022/11/30 05:45:50;;;;;;;23.00;19.07;;;;;;;6.44;100.00;102229.19;5223785;28;20033;-66
2022/11/30 05:48:22;;;;;;;27.07;20.27;;;;;;;6.39;100.00;102225.81;5232158;28;20037;-67
2022/11/30 05:50:53;;;;;;;23.03;19.80;;;;;;;6.60;100.00;102228.88;5231860;28;20045;-67
2022/11/30 05:53:24;;;;;;;24.07;17.90;;;;;;;6.50;100.00;102239.50;5231777;28;20055;-67
2022/11/30 05:55:59;;;;;;;24.93;19.27;;;;;;;6.59;100.00;102245.41;5232980;28;20033;-67
2022/11/30 05:58:31;;;;;;;25.17;19.10;;;;;;;6.61;100.00;102243.63;5226372;28;20029;-66
2022/11/30 06:01:03;;;;;;;28.13;22.50;;;;;;;6.65;100.00;102245.25;5230199;28;20492;-67
2022/11/30 06:03:34;;;;;;;28.13;20.77;;;;;;;6.48;100.00;102224.78;5231850;28;20040;-68
2022/11/30 06:06:06;;;;;;;27.43;20.03;;;;;;;6.56;100.00;102248.06;5221552;28;20700;-67
2022/11/30 06:08:37;;;;;;;28.87;21.30;;;;;;;6.60;100.00;102244.50;5227619;28;20463;-67
2022/11/30 06:11:09;;;;;;;25.17;20.40;;;;;;;6.50;100.00;102260.31;5237464;28;20033;-67
2022/11/30 06:13:41;;;;;;;25.57;20.10;;;;;;;6.43;100.00;102248.31;5227160;28;20850;-67
2022/11/30 06:16:12;;;;;;;24.80;19.80;;;;;;;6.54;100.00;102246.34;5232942;28;20052;-67
2022/11/30 06:18:43;;;;;;;26.97;20.30;;;;;;;6.67;100.00;102251.28;5218230;28;20373;-67
2022/11/30 06:21:15;;;;;;;26.20;19.33;;;;;;;6.56;100.00;102250.66;5231726;28;20124;-67
2022/11/30 06:23:46;;;;;;;29.67;20.60;;;;;;;6.51;100.00;102255.97;5231989;28;20033;-67
2022/11/30 06:26:17;;;;;;;26.83;20.00;;;;;;;6.65;100.00;102250.47;5232411;28;20033;-67
2022/11/30 06:28:48;;;;;;;26.47;19.73;;;;;;;6.54;100.00;102253.31;5229665;28;20037;-67
2022/11/30 06:31:20;;;;;;;26.90;20.20;;;;;;;6.46;100.00;102250.84;5221944;28;20034;-67
2022/11/30 06:33:51;;;;;;;29.23;21.43;;;;;;;6.53;100.00;102254.19;5231860;28;20025;-67
2022/11/30 06:36:23;;;;;;;27.73;20.83;;;;;;;6.55;100.00;102252.41;5230264;28;20029;-67
2022/11/30 06:38:54;;;;;;;28.40;20.80;;;;;;;6.47;100.00;102251.72;5230645;28;20044;-67
2022/11/30 06:41:26;;;;;;;29.83;21.20;;;;;;;6.48;100.00;102258.63;5223873;28;20476;-67
2022/11/30 06:43:57;;;;;;;26.73;20.30;;;;;;;6.41;100.00;102252.69;5228139;28;20571;-68
2022/11/30 06:46:28;;;;;;;32.57;21.77;;;;;;;6.40;100.00;102253.59;5231333;28;20408;-67
2022/11/30 06:48:59;;;;;;;28.83;21.53;;;;;;;6.44;100.00;102254.38;5227252;28;21078;-67
2022/11/30 06:51:32;;;;;;;28.60;21.23;;;;;;;6.54;100.00;102261.13;5230279;28;20511;-67
2022/11/30 06:54:04;;;;;;;27.33;20.37;;;;;;;6.43;100.00;102253.50;5224229;28;20107;-67
2022/11/30 06:56:35;;;;;;;26.40;20.77;;;;;;;6.45;100.00;102267.34;5219643;28;20062;-68
2022/11/30 06:59:06;;;;;;;29.27;21.80;;;;;;;6.45;100.00;102267.34;5215621;28;20701;-68
2022/11/30 07:01:38;;;;;;;30.00;20.57;;;;;;;6.59;100.00;102266.22;5229353;28;20032;-68
2022/11/30 07:04:09;;;;;;;28.90;21.03;;;;;;;6.64;100.00;102272.19;5229216;28;20037;-67
2022/11/30 07:06:40;;;;;;;26.57;20.33;;;;;;;6.67;100.00;102271.28;5228706;28;20030;-68
2022/11/30 07:09:12;;;;;;;28.30;21.03;;;;;;;6.58;100.00;102272.34;5222365;28;20025;-67
2022/11/30 07:11:44;;;;;;;31.03;20.03;;;;;;;6.48;100.00;102266.44;5230918;28;20364;-67
2022/11/30 07:14:15;;;;;;;25.33;19.40;;;;;;;6.43;100.00;102268.25;5230602;28;20037;-67
2022/11/30 07:16:46;;;;;;;24.33;20.43;;;;;;;6.41;100.00;102271.75;5231628;28;20033;-67
2022/11/30 07:19:18;;;;;;;26.53;21.10;;;;;;;6.48;100.00;102280.31;5230956;28;20068;-67
2022/11/30 07:21:49;;;;;;;29.07;19.97;;;;;;;6.45;100.00;102274.31;5231522;28;20041;-67
2022/11/30 07:27:11;;;;;;;26.53;21.53;;;;;;;6.43;100.00;102289.09;5239932;28;20037;-67
2022/11/30 07:29:42;;;;;;;27.77;20.00;;;;;;;6.46;100.00;102289.88;5234208;28;20117;-67
2022/11/30 07:32:14;;;;;;;29.40;21.53;;;;;;;6.51;100.00;102298.47;5230293;28;20022;-68
2022/11/30 07:34:45;;;;;;;28.60;20.47;;;;;;;6.41;100.00;102302.13;5228436;28;20053;-67
2022/11/30 07:37:17;;;;;;;27.63;21.93;;;;;;;6.52;100.00;102297.59;5232667;28;20037;-68
2022/11/30 07:39:48;;;;;;;27.23;20.87;;;;;;;6.47;100.00;102302.03;5232165;28;20086;-67
2022/11/30 07:42:21;;;;;;;31.33;23.40;;;;;;;6.41;100.00;102296.91;5215431;28;20033;-69
2022/11/30 07:44:52;;;;;;;28.80;22.47;;;;;;;6.33;100.00;102298.81;5234351;28;20029;-68
2022/11/30 07:47:24;;;;;;;26.10;21.30;;;;;;;6.48;100.00;102308.94;5232656;28;20040;-67
2022/11/30 07:49:55;;;;;;;30.53;22.33;;;;;;;6.47;100.00;102316.78;5235051;28;20031;-67
2022/11/30 07:52:26;;;;;;;26.20;20.90;;;;;;;6.44;100.00;102315.06;5234921;28;20037;-67
2022/11/30 07:54:57;;;;;;;33.37;22.70;;;;;;;6.48;100.00;102321.97;5234154;28;20100;-66
2022/11/30 07:57:29;;;;;;;29.17;22.13;;;;;;;6.53;100.00;102321.84;5234148;28;20029;-67
2022/11/30 08:00:00;;;;;;;29.87;23.43;;;;;;;6.53;100.00;102312.31;5233283;28;20033;-67
2022/11/30 08:02:31;;;;;;;27.57;22.63;;;;;;;6.51;100.00;102314.09;5229908;28;20060;-66
2022/11/30 08:05:03;;;;;;;31.07;22.00;;;;;;;6.65;100.00;102308.59;5229232;28;20511;-67
2022/11/30 08:07:34;;;;;;;27.87;20.67;;;;;;;6.67;100.00;102321.59;5226338;28;20539;-66
2022/11/30 08:10:06;;;;;;;32.97;23.50;;;;;;;6.56;100.00;102298.41;5227506;28;20033;-67
2022/11/30 08:12:37;;;;;;;27.60;22.10;;;;;;;6.63;100.00;102322.56;5234424;28;20056;-66
2022/11/30 08:15:09;;;;;;;27.17;21.87;;;;;;;6.64;100.00;102329.47;5230716;28;20067;-66
2022/11/30 08:17:41;;;;;;;33.43;22.13;;;;;;;6.69;100.00;102326.78;5233498;28;20052;-68
2022/11/30 08:20:12;;;;;;;27.07;22.07;;;;;;;6.63;100.00;102323.41;5234232;28;20532;-67
2022/11/30 08:22:43;;;;;;;32.00;22.83;;;;;;;6.62;100.00;102334.72;5233848;28;20041;-67
2022/11/30 08:25:15;;;;;;;29.33;22.37;;;;;;;6.71;100.00;102331.06;5228940;28;20032;-67
2022/11/30 08:27:46;;;;;;;31.53;22.60;;;;;;;6.63;100.00;102338.19;5225839;28;20036;-69
2022/11/30 08:30:18;;;;;;;26.87;22.00;;;;;;;6.71;100.00;102340.63;5232187;28;20041;-67
2022/11/30 08:32:49;;;;;;;28.03;21.80;;;;;;;6.73;100.00;102344.94;5232476;28;20060;-68
2022/11/30 08:35:21;;;;;;;31.53;23.03;;;;;;;6.85;100.00;102340.34;5231702;28;20130;-68
2022/11/30 08:37:52;;;;;;;26.40;21.87;;;;;;;6.94;100.00;102345.38;5232541;28;20030;-69
2022/11/30 08:40:24;;;;;;;30.97;22.77;;;;;;;6.95;100.00;102343.63;5232755;28;20439;-66
2022/11/30 08:42:57;;;;;;;28.07;22.17;;;;;;;6.92;100.00;102354.09;5228976;28;20780;-68
2022/11/30 08:45:28;;;;;;;29.40;22.47;;;;;;;7.00;100.00;102357.41;5232139;28;20508;-68
2022/11/30 08:48:00;;;;;;;26.60;21.43;;;;;;;6.89;100.00;102360.25;5219707;28;20022;-70
2022/11/30 08:50:31;;;;;;;30.03;23.33;;;;;;;6.95;100.00;102357.50;5223704;28;20064;-68
2022/11/30 08:53:03;;;;;;;24.10;21.43;;;;;;;6.94;100.00;102363.63;5228362;28;20064;-69
2022/11/30 08:55:34;;;;;;;25.83;20.10;;;;;;;6.96;100.00;102361.84;5233194;28;20481;-69
2022/11/30 08:58:05;;;;;;;26.57;21.10;;;;;;;6.98;100.00;102354.84;5225060;28;20026;-68
2022/11/30 09:00:36;;;;;;;29.50;20.77;;;;;;;7.07;100.00;102352.97;5223065;28;20026;-68
2022/11/30 09:03:08;;;;;;;27.37;20.80;;;;;;;7.03;100.00;102357.38;5229983;28;20064;-68
2022/11/30 09:05:39;;;;;;;28.77;22.33;;;;;;;6.98;100.00;102347.03;5228343;28;20033;-67
2022/11/30 09:08:10;;;;;;;26.43;21.17;;;;;;;7.08;100.00;102362.47;5230490;28;20760;-68
2022/11/30 09:10:41;;;;;;;29.17;21.23;;;;;;;7.23;100.00;102364.75;5232314;28;20060;-67
2022/11/30 09:13:13;;;;;;;24.43;21.57;;;;;;;7.21;100.00;102358.72;5228224;28;20029;-68
2022/11/30 09:15:44;;;;;;;26.43;20.13;;;;;;;7.40;100.00;102373.13;5229729;28;20044;-68
2022/11/30 09:18:15;;;;;;;28.30;21.87;;;;;;;7.37;100.00;102374.03;5231247;28;20095;-68
2022/11/30 09:20:47;;;;;;;26.63;22.30;;;;;;;7.36;100.00;102369.72;5230964;28;20052;-68
2022/11/30 09:23:18;;;;;;;30.17;23.13;;;;;;;7.38;100.00;102379.22;5231539;28;20056;-68
2022/11/30 09:25:55;;;;;;;25.57;22.47;;;;;;;7.56;100.00;102381.44;5230335;28;20121;-68
2022/11/30 09:28:29;;;;;;;28.07;23.87;;;;;;;7.56;100.00;102374.47;5227614;28;20191;-67
2022/11/30 09:31:10;;;;;;;27.05;22.52;;;;;;;8.15;100.00;102379.22;5219970;28;20026;-67
2022/11/30 09:33:43;;;;;;;30.43;21.77;;;;;;;9.21;100.00;102381.66;5228064;28;20033;-68
2022/11/30 09:36:18;;;;;;;22.63;20.13;;;;;;;9.92;100.00;102386.47;5231318;28;20052;-69
2022/11/30 09:38:49;;;;;;;24.30;19.77;;;;;;;9.94;100.00;102383.81;5232252;28;20057;-70
2022/11/30 09:41:49;;;;;;;26.50;21.47;;;;;;;9.68;100.00;102380.28;5232044;28;20151;-69
2022/11/30 09:44:32;;;;;;;22.13;19.73;;;;;;;9.51;100.00;102394.72;5229293;28;20029;-69
2022/11/30 09:47:06;;;;;;;24.57;19.23;;;;;;;9.27;100.00;102385.84;5232383;28;20175;-70
2022/11/30 09:49:47;;;;;;;27.10;21.10;;;;;;;9.32;100.00;102381.31;5230129;28;20041;-69
2022/11/30 09:52:32;;;;;;;23.33;19.23;;;;;;;8.95;100.00;102381.50;5232445;28;20477;-69
2022/11/30 09:55:12;;;;;;;26.70;21.15;;;;;;;8.94;100.00;102373.69;5229278;28;20116;-70
2022/11/30 09:57:53;;;;;;;25.83;20.90;;;;;;;8.85;100.00;102380.03;5230083;28;20041;-70
2022/11/30 10:00:25;;;;;;;25.47;21.00;;;;;;;8.80;100.00;102379.31;5229510;28;20040;-69
2022/11/30 10:03:00;;;;;;;26.20;22.27;;;;;;;8.87;100.00;102378.25;5230327;28;20029;-70
2022/11/30 10:05:55;;;;;;;26.40;21.60;;;;;;;8.99;100.00;102384.03;5230797;28;20472;-69
2022/11/30 10:08:41;;;;;;;26.77;22.55;;;;;;;8.79;100.00;102373.25;5230544;28;20025;-69
2022/11/30 10:11:46;;;;;;;25.93;21.37;;;;;;;8.81;100.00;102378.44;5246705;28;20033;-70
2022/11/30 10:14:36;;;;;;;27.67;22.67;;;;;;;8.69;100.00;102379.63;5214834;28;20055;-70
2022/11/30 10:17:27;;;;;;;26.77;21.37;;;;;;;8.43;100.00;102371.53;5225422;28;20168;-69
2022/11/30 10:20:23;;;;;;;27.53;21.50;;;;;;;8.59;100.00;102373.78;5223987;28;20044;-69
2022/11/30 10:23:17;;;;;;;29.93;23.43;;;;;;;8.55;100.00;102373.00;5220665;28;20033;-69
2022/11/30 10:25:56;;;;;;;27.87;23.83;;;;;;;8.41;100.00;102372.50;5227000;28;20053;-69
2022/11/30 10:28:51;;;;;;;27.93;21.77;;;;;;;8.42;100.00;102368.97;5222638;28;20507;-70
2022/11/30 10:31:33;;;;;;;26.80;22.13;;;;;;;8.53;100.00;102364.34;5234707;28;20554;-69
2022/11/30 10:34:27;;;;;;;26.60;21.87;;;;;;;8.48;100.00;102368.81;5229433;28;20555;-71
2022/11/30 10:37:11;;;;;;;27.03;22.90;;;;;;;8.61;100.00;102361.53;5231044;28;20038;-69
2022/11/30 10:39:56;;;;;;;27.77;22.53;;;;;;;8.62;100.00;102367.63;5231343;28;20045;-69
2022/11/30 10:42:33;;;;;;;;;;;;;;;8.87;100.00;102365.19;5229424;28;20388;-71
2022/11/30 10:45:10;;;;;;;28.27;22.90;;;;;;;8.74;100.00;102358.59;5218739;28;20328;-71
2022/11/30 10:47:50;;;;;;;30.63;23.30;;;;;;;8.90;100.00;102354.63;5231027;28;20021;-70
2022/11/30 10:50:24;;;;;;;25.13;22.07;;;;;;;8.99;100.00;102357.91;5221304;28;20107;-70
2022/11/30 10:52:59;;;;;;;26.00;21.10;;;;;;;8.95;100.00;102351.91;5230988;28;20022;-70
2022/11/30 10:55:38;;;;;;;28.57;20.60;;;;;;;9.00;100.00;102354.38;5223597;28;20106;-70
2022/11/30 10:58:25;;;;;;;22.70;18.03;;;;;;;8.88;100.00;102348.63;5226417;28;20051;-70
2022/11/30 11:01:00;;;;;;;31.80;20.63;;;;;;;8.95;100.00;102352.75;5234349;28;20491;-70
2022/11/30 11:03:32;;;;;;;31.53;20.83;;;;;;;8.92;100.00;102350.22;5231653;28;20540;-70
2022/11/30 11:06:10;;;;;;;26.10;19.73;;;;;;;8.84;100.00;102347.00;5225543;28;20026;-70
2022/11/30 11:08:44;;;;;;;21.80;18.83;;;;;;;8.90;100.00;102341.56;5234371;28;20037;-70
2022/11/30 11:11:27;;;;;;;19.63;17.55;;;;;;;9.03;100.00;102351.69;5233800;28;20010;-70
2022/11/30 11:14:20;;;;;;;28.23;18.50;;;;;;;9.06;100.00;102343.75;5232675;28;20033;-70
2022/11/30 11:16:56;;;;;;;21.73;16.97;;;;;;;8.97;100.00;102346.66;5234698;28;20104;-70
2022/11/30 11:19:35;;;;;;;22.23;18.13;;;;;;;9.00;100.00;102347.41;5234787;28;20022;-70
2022/11/30 11:22:25;;;;;;;21.30;17.67;;;;;;;9.08;100.00;102341.94;5234147;28;20033;-71
2022/11/30 11:25:24;;;;;;;22.70;17.23;;;;;;;9.13;100.00;102344.44;5235032;28;20041;-70
2022/11/30 11:28:04;;;;;;;22.33;18.60;;;;;;;9.15;100.00;102345.22;5233529;28;20025;-70
2022/11/30 11:30:36;;;;;;;23.90;19.20;;;;;;;9.07;100.00;102345.47;5234456;28;20120;-71
2022/11/30 11:33:11;;;;;;;21.27;18.97;;;;;;;9.06;100.00;102343.75;5234500;28;20132;-70
2022/11/30 11:35:46;;;;;;;22.50;18.93;;;;;;;9.08;100.00;102347.19;5230688;28;20041;-68
2022/11/30 11:38:19;;;;;;;25.07;18.90;;;;;;;9.02;100.00;102342.13;5232107;28;21692;-68
2022/11/30 11:40:54;;;;;;;24.30;19.27;;;;;;;8.98;100.00;102348.34;5233815;28;20080;-70
2022/11/30 11:43:26;;;;;;;;;;;;;;;9.18;100.00;102345.16;5229140;28;20514;-70